createdAt,value
2023-05-11T00:00:54.382Z,13.28
2023-05-11T00:01:54.402Z,13.27
2023-05-11T00:02:54.548Z,13.27
2023-05-11T00:03:54.504Z,13.23
2023-05-11T00:04:54.456Z,13.13
2023-05-11T00:05:54.476Z,13.20
2023-05-11T00:06:54.487Z,13.09
2023-05-11T00:07:54.509Z,13.08
2023-05-11T00:08:54.525Z,13.19
2023-05-11T00:09:54.544Z,13.17
2023-05-11T00:10:54.564Z,13.17
2023-05-11T00:11:54.570Z,13.08
2023-05-11T00:12:54.596Z,13.02
2023-05-11T00:13:54.613Z,13.02
2023-05-11T00:14:54.629Z,13.02
2023-05-11T00:15:54.684Z,12.98
2023-05-11T00:16:54.665Z,12.95
2023-05-11T00:17:54.734Z,12.93
2023-05-11T00:18:54.766Z,12.94
2023-05-11T00:19:54.715Z,12.93
2023-05-11T00:20:54.741Z,12.81
2023-05-11T00:21:54.758Z,12.83
2023-05-11T00:22:54.770Z,12.78
2023-05-11T00:23:54.787Z,12.76
2023-05-11T00:24:54.805Z,12.75
2023-05-11T00:25:54.827Z,12.72
2023-05-11T00:26:54.840Z,12.70
2023-05-11T00:27:54.859Z,12.81
2023-05-11T00:28:54.877Z,12.78
2023-05-11T00:29:54.892Z,12.76
2023-05-11T00:30:54.993Z,12.80
2023-05-11T00:31:54.997Z,12.68
2023-05-11T00:32:54.979Z,12.68
2023-05-11T00:33:54.958Z,12.68
2023-05-11T00:34:54.973Z,12.65
2023-05-11T00:35:54.990Z,12.66
2023-05-11T00:36:55.026Z,12.69
2023-05-11T00:37:55.030Z,12.66
2023-05-11T00:38:55.045Z,12.55
2023-05-11T00:39:55.060Z,12.57
2023-05-11T00:40:55.078Z,12.55
2023-05-11T00:41:55.094Z,12.51
2023-05-11T00:42:55.112Z,12.55
2023-05-11T00:43:55.129Z,12.51
2023-05-11T00:44:55.149Z,12.44
2023-05-11T00:45:55.164Z,12.44
2023-05-11T00:46:55.232Z,12.47
2023-05-11T00:47:55.267Z,12.48
2023-05-11T00:48:55.210Z,12.43
2023-05-11T00:49:55.236Z,12.39
2023-05-11T00:50:55.254Z,12.36
2023-05-11T00:51:55.283Z,12.37
2023-05-11T00:52:55.283Z,12.32
2023-05-11T00:53:55.302Z,12.26
2023-05-11T00:54:55.329Z,12.30
2023-05-11T00:55:55.341Z,12.25
2023-05-11T00:56:55.351Z,12.23
2023-05-11T00:57:55.369Z,12.29
2023-05-11T00:58:55.387Z,12.28
2023-05-11T00:59:55.408Z,12.25
2023-05-11T01:00:55.451Z,12.21
2023-05-11T01:01:55.480Z,12.20
2023-05-11T01:02:55.556Z,12.25
2023-05-11T01:03:55.473Z,12.20
2023-05-11T01:04:55.493Z,12.12
2023-05-11T01:05:55.507Z,12.15
2023-05-11T01:06:55.530Z,12.05
2023-05-11T01:07:55.539Z,12.14
2023-05-11T01:08:55.557Z,12.05
2023-05-11T01:09:55.575Z,12.11
2023-05-11T01:10:55.593Z,12.08
2023-05-11T01:11:55.608Z,12.07
2023-05-11T01:12:55.627Z,12.03
2023-05-11T01:13:55.645Z,12.07
2023-05-11T01:14:55.661Z,12.12
2023-05-11T01:15:55.676Z,12.02
2023-05-11T01:16:55.720Z,12.02
2023-05-11T01:17:55.754Z,11.99
2023-05-11T01:18:55.782Z,11.96
2023-05-11T01:19:55.744Z,11.95
2023-05-11T01:20:55.762Z,11.81
2023-05-11T01:21:55.778Z,11.88
2023-05-11T01:22:55.796Z,11.93
2023-05-11T01:23:55.814Z,11.97
2023-05-11T01:24:55.856Z,11.93
2023-05-11T01:25:55.843Z,11.88
2023-05-11T01:26:55.876Z,11.86
2023-05-11T01:27:55.878Z,11.91
2023-05-11T01:28:55.895Z,11.76
2023-05-11T01:29:55.917Z,11.86
2023-05-11T01:30:55.930Z,11.86
2023-05-11T01:31:55.965Z,11.83
2023-05-11T01:32:56.124Z,11.78
2023-05-11T01:33:55.981Z,11.76
2023-05-11T01:34:55.997Z,11.80
2023-05-11T01:35:56.011Z,11.85
2023-05-11T01:36:56.033Z,11.78
2023-05-11T01:37:56.048Z,11.78
2023-05-11T01:38:56.061Z,11.80
2023-05-11T01:39:56.078Z,11.78
2023-05-11T01:40:56.101Z,11.74
2023-05-11T01:41:56.114Z,11.68
2023-05-11T01:42:56.123Z,11.67
2023-05-11T01:43:56.141Z,11.71
2023-05-11T01:44:56.163Z,11.70
2023-05-11T01:45:56.190Z,11.71
2023-05-11T01:46:56.191Z,11.68
2023-05-11T01:47:56.245Z,11.70
2023-05-11T01:48:56.239Z,11.62
2023-05-11T01:49:56.240Z,11.70
2023-05-11T01:50:56.259Z,11.67
2023-05-11T01:51:56.270Z,11.59
2023-05-11T01:52:56.291Z,11.55
2023-05-11T01:53:56.306Z,11.55
2023-05-11T01:54:56.343Z,11.58
2023-05-11T01:55:56.342Z,11.52
2023-05-11T01:56:56.357Z,11.59
2023-05-11T01:57:56.379Z,11.52
2023-05-11T01:58:56.394Z,11.58
2023-05-11T01:59:56.409Z,11.40
2023-05-11T02:00:56.433Z,11.49
2023-05-11T02:01:56.500Z,11.48
2023-05-11T02:02:56.559Z,11.48
2023-05-11T02:03:56.471Z,11.41
2023-05-11T02:04:56.483Z,11.49
2023-05-11T02:05:56.501Z,11.44
2023-05-11T02:06:56.528Z,11.44
2023-05-11T02:07:56.537Z,11.37
2023-05-11T02:08:56.550Z,11.45
2023-05-11T02:09:56.569Z,11.41
2023-05-11T02:10:56.587Z,11.40
2023-05-11T02:11:56.602Z,11.35
2023-05-11T02:12:56.625Z,11.45
2023-05-11T02:13:56.635Z,11.40
2023-05-11T02:14:56.652Z,11.43
2023-05-11T02:15:56.682Z,11.38
2023-05-11T02:16:56.687Z,11.38
2023-05-11T02:17:56.721Z,11.37
2023-05-11T02:18:56.743Z,11.37
2023-05-11T02:19:56.730Z,11.38
2023-05-11T02:20:56.748Z,11.38
2023-05-11T02:21:56.768Z,11.34
2023-05-11T02:22:56.783Z,11.37
2023-05-11T02:23:56.798Z,11.35
2023-05-11T02:24:56.811Z,11.40
2023-05-11T02:25:56.835Z,11.34
2023-05-11T02:26:56.847Z,11.34
2023-05-11T02:27:56.862Z,11.33
2023-05-11T02:28:56.874Z,11.37
2023-05-11T02:29:56.893Z,11.37
2023-05-11T02:30:56.980Z,11.37
2023-05-11T02:31:56.930Z,11.37
2023-05-11T02:32:56.962Z,11.27
2023-05-11T02:33:56.958Z,11.35
2023-05-11T02:34:56.976Z,11.33
2023-05-11T02:35:57.007Z,11.34
2023-05-11T02:36:57.014Z,11.30
2023-05-11T02:37:57.117Z,11.22
2023-05-11T02:38:57.040Z,11.31
2023-05-11T02:39:57.060Z,11.23
2023-05-11T02:40:57.070Z,11.25
2023-05-11T02:41:57.085Z,11.30
2023-05-11T02:42:57.104Z,11.23
2023-05-11T02:43:57.118Z,11.31
2023-05-11T02:44:57.137Z,11.25
2023-05-11T02:45:57.150Z,11.23
2023-05-11T02:46:57.229Z,11.23
2023-05-11T02:47:57.224Z,11.25
2023-05-11T02:48:57.208Z,11.31
2023-05-11T02:49:57.225Z,11.33
2023-05-11T02:50:57.248Z,11.34
2023-05-11T02:51:57.255Z,11.26
2023-05-11T02:52:57.277Z,11.26
2023-05-11T02:53:57.281Z,11.26
2023-05-11T02:54:57.297Z,11.25
2023-05-11T02:55:57.316Z,11.35
2023-05-11T02:56:57.336Z,11.31
2023-05-11T02:57:57.381Z,11.23
2023-05-11T02:58:57.360Z,11.25
2023-05-11T02:59:57.384Z,11.20
2023-05-11T03:00:57.505Z,11.27
2023-05-11T03:01:57.493Z,11.26
2023-05-11T03:02:57.561Z,11.23
2023-05-11T03:03:57.490Z,11.23
2023-05-11T03:04:57.458Z,11.22
2023-05-11T03:05:57.472Z,11.22
2023-05-11T03:06:57.493Z,11.20
2023-05-11T03:07:57.505Z,11.23
2023-05-11T03:08:57.518Z,11.16
2023-05-11T03:09:57.538Z,11.18
2023-05-11T03:10:57.562Z,11.13
2023-05-11T03:11:57.581Z,11.19
2023-05-11T03:12:57.585Z,11.18
2023-05-11T03:13:57.599Z,11.19
2023-05-11T03:14:57.625Z,11.12
2023-05-11T03:15:57.638Z,11.15
2023-05-11T03:16:57.668Z,11.07
2023-05-11T03:17:57.705Z,11.08
2023-05-11T03:18:57.713Z,11.04
2023-05-11T03:19:57.695Z,11.01
2023-05-11T03:20:57.713Z,11.07
2023-05-11T03:21:57.734Z,10.98
2023-05-11T03:22:57.748Z,10.95
2023-05-11T03:23:57.760Z,11.01
2023-05-11T03:24:57.777Z,11.01
2023-05-11T03:25:57.796Z,10.90
2023-05-11T03:26:57.838Z,10.94
2023-05-11T03:27:57.825Z,10.92
2023-05-11T03:28:57.842Z,10.90
2023-05-11T03:29:57.858Z,11.01
2023-05-11T03:30:57.875Z,10.90
2023-05-11T03:31:57.901Z,10.86
2023-05-11T03:32:57.916Z,10.80
2023-05-11T03:33:57.926Z,10.84
2023-05-11T03:34:57.938Z,10.87
2023-05-11T03:35:57.966Z,10.80
2023-05-11T03:36:57.970Z,10.86
2023-05-11T03:37:57.983Z,10.86
2023-05-11T03:38:58.017Z,10.77
2023-05-11T03:39:58.023Z,10.87
2023-05-11T03:40:58.033Z,10.77
2023-05-11T03:41:58.051Z,10.79
2023-05-11T03:42:58.063Z,10.82
2023-05-11T03:43:58.086Z,10.76
2023-05-11T03:44:58.103Z,10.72
2023-05-11T03:45:58.158Z,10.77
2023-05-11T03:46:58.131Z,10.75
2023-05-11T03:47:58.213Z,10.77
2023-05-11T03:48:58.162Z,10.75
2023-05-11T03:49:58.189Z,10.83
2023-05-11T03:50:58.194Z,10.80
2023-05-11T03:51:58.224Z,10.80
2023-05-11T03:52:58.223Z,10.77
2023-05-11T03:53:58.239Z,10.72
2023-05-11T03:54:58.267Z,10.82
2023-05-11T03:55:58.266Z,10.67
2023-05-11T03:56:58.288Z,10.79
2023-05-11T03:57:58.301Z,10.72
2023-05-11T03:58:58.317Z,10.67
2023-05-11T03:59:58.338Z,10.65
2023-05-11T04:00:58.351Z,10.61
2023-05-11T04:01:58.365Z,10.69
2023-05-11T04:02:58.466Z,10.64
2023-05-11T04:03:58.467Z,10.69
2023-05-11T04:04:58.418Z,10.72
2023-05-11T04:05:58.425Z,10.69
2023-05-11T04:06:58.466Z,10.75
2023-05-11T04:07:58.464Z,10.69
2023-05-11T04:08:58.471Z,10.71
2023-05-11T04:09:58.504Z,10.67
2023-05-11T04:10:58.506Z,10.68
2023-05-11T04:11:58.553Z,10.69
2023-05-11T04:12:58.545Z,10.71
2023-05-11T04:13:58.554Z,10.82
2023-05-11T04:14:58.572Z,10.75
2023-05-11T04:15:58.614Z,10.71
2023-05-11T04:16:58.598Z,10.82
2023-05-11T04:17:58.685Z,10.76
2023-05-11T04:18:58.678Z,10.82
2023-05-11T04:19:58.668Z,10.72
2023-05-11T04:20:58.660Z,10.79
2023-05-11T04:21:58.676Z,10.77
2023-05-11T04:22:58.697Z,10.69
2023-05-11T04:23:58.709Z,10.76
2023-05-11T04:24:58.728Z,10.77
2023-05-11T04:25:58.740Z,10.71
2023-05-11T04:26:58.758Z,10.77
2023-05-11T04:27:58.777Z,10.80
2023-05-11T04:28:58.789Z,10.89
2023-05-11T04:29:58.811Z,10.79
2023-05-11T04:30:58.829Z,10.92
2023-05-11T04:31:58.912Z,10.82
2023-05-11T04:32:58.919Z,10.83
2023-05-11T04:33:58.869Z,10.79
2023-05-11T04:34:58.881Z,10.84
2023-05-11T04:35:58.962Z,10.86
2023-05-11T04:36:58.916Z,10.80
2023-05-11T04:37:58.933Z,10.86
2023-05-11T04:38:58.950Z,10.86
2023-05-11T04:39:58.962Z,10.86
2023-05-11T04:40:58.979Z,10.89
2023-05-11T04:41:58.996Z,10.92
2023-05-11T04:42:59.012Z,10.92
2023-05-11T04:43:59.032Z,10.97
2023-05-11T04:44:59.045Z,10.92
2023-05-11T04:45:59.057Z,10.94
2023-05-11T04:46:59.154Z,10.98
2023-05-11T04:47:59.134Z,11.02
2023-05-11T04:48:59.109Z,10.98
2023-05-11T04:49:59.140Z,11.08
2023-05-11T04:50:59.140Z,11.05
2023-05-11T04:51:59.155Z,11.02
2023-05-11T04:52:59.180Z,11.08
2023-05-11T04:53:59.187Z,11.10
2023-05-11T04:54:59.212Z,11.15
2023-05-11T04:55:59.219Z,11.13
2023-05-11T04:56:59.251Z,11.16
2023-05-11T04:57:59.252Z,11.19
2023-05-11T04:58:59.265Z,11.22
2023-05-11T04:59:59.350Z,11.20
2023-05-11T05:00:59.475Z,11.33
2023-05-11T05:01:59.316Z,11.26
2023-05-11T05:02:59.382Z,11.33
2023-05-11T05:03:59.398Z,11.31
2023-05-11T05:04:59.365Z,11.37
2023-05-11T05:05:59.380Z,11.37
2023-05-11T05:06:59.400Z,11.40
2023-05-11T05:07:59.417Z,11.43
2023-05-11T05:08:59.434Z,11.49
2023-05-11T05:09:59.446Z,11.49
2023-05-11T05:10:59.467Z,11.52
2023-05-11T05:11:59.495Z,11.48
2023-05-11T05:12:59.516Z,11.55
2023-05-11T05:13:59.516Z,11.59
2023-05-11T05:14:59.552Z,11.59
2023-05-11T05:15:59.568Z,11.68
2023-05-11T05:16:59.682Z,11.62
2023-05-11T05:17:59.603Z,11.62
2023-05-11T05:18:59.662Z,11.71
2023-05-11T05:19:59.621Z,11.70
2023-05-11T05:20:59.630Z,11.80
2023-05-11T05:21:59.651Z,11.78
2023-05-11T05:22:59.664Z,11.77
2023-05-11T05:23:59.691Z,11.85
2023-05-11T05:24:59.699Z,11.89
2023-05-11T05:25:59.716Z,11.95
2023-05-11T05:26:59.732Z,11.95
2023-05-11T05:27:59.757Z,11.91
2023-05-11T05:28:59.765Z,12.02
2023-05-11T05:29:59.784Z,12.02
2023-05-11T05:30:59.859Z,12.08
2023-05-11T05:31:59.814Z,12.18
2023-05-11T05:32:59.894Z,12.23
2023-05-11T05:33:59.862Z,12.25
2023-05-11T05:34:59.880Z,12.39
2023-05-11T05:35:59.887Z,12.55
2023-05-11T05:36:59.912Z,12.70
2023-05-11T05:37:59.921Z,12.66
2023-05-11T05:38:59.936Z,12.84
2023-05-11T05:39:59.952Z,12.83
2023-05-11T05:40:59.973Z,12.84
2023-05-11T05:41:59.987Z,12.98
2023-05-11T05:43:00.012Z,12.99
2023-05-11T05:44:00.029Z,13.13
2023-05-11T05:45:00.039Z,13.12
2023-05-11T05:46:00.080Z,13.12
2023-05-11T05:47:00.078Z,13.19
2023-05-11T05:48:00.149Z,13.21
2023-05-11T05:49:00.130Z,13.30
2023-05-11T05:50:00.150Z,13.27
2023-05-11T05:51:00.203Z,13.26
2023-05-11T05:52:00.167Z,13.45
2023-05-11T05:53:00.188Z,13.42
2023-05-11T05:54:00.208Z,13.46
2023-05-11T05:55:00.227Z,13.50
2023-05-11T05:56:00.235Z,13.58
2023-05-11T05:57:00.253Z,13.55
2023-05-11T05:58:00.273Z,13.55
2023-05-11T05:59:00.289Z,13.75
2023-05-11T06:00:00.307Z,13.70
2023-05-11T06:01:00.335Z,13.76
2023-05-11T06:02:00.345Z,13.82
2023-05-11T06:03:00.523Z,13.87
2023-05-11T06:04:00.619Z,13.86
2023-05-11T06:05:00.431Z,13.91
2023-05-11T06:06:00.415Z,14.01
2023-05-11T06:07:00.434Z,14.01
2023-05-11T06:08:10.086Z,14.03
2023-05-11T06:09:00.475Z,14.04
2023-05-11T06:10:00.488Z,14.22
2023-05-11T06:11:00.504Z,14.13
2023-05-11T06:12:00.531Z,14.22
2023-05-11T06:13:00.551Z,14.34
2023-05-11T06:14:00.570Z,14.36
2023-05-11T06:15:00.594Z,14.37
2023-05-11T06:16:00.641Z,14.52
2023-05-11T06:17:00.624Z,14.58
2023-05-11T06:18:00.682Z,14.68
2023-05-11T06:19:00.713Z,14.77
2023-05-11T06:20:00.672Z,14.90
2023-05-11T06:21:00.692Z,14.97
2023-05-11T06:22:00.712Z,15.12
2023-05-11T06:23:00.744Z,15.26
2023-05-11T06:24:00.752Z,15.36
2023-05-11T06:25:00.778Z,15.48
2023-05-11T06:26:00.789Z,15.72
2023-05-11T06:27:00.822Z,15.98
2023-05-11T06:28:00.837Z,16.26
2023-05-11T06:29:00.853Z,16.40
2023-05-11T06:30:00.871Z,16.64
2023-05-11T06:31:00.919Z,16.98
2023-05-11T06:32:01.066Z,17.14
2023-05-11T06:33:00.994Z,17.41
2023-05-11T06:34:00.956Z,17.60
2023-05-11T06:35:00.972Z,17.86
2023-05-11T06:36:01.939Z,17.97
2023-05-11T06:37:01.048Z,18.31
2023-05-11T06:38:01.041Z,18.45
2023-05-11T06:39:01.069Z,18.68
2023-05-11T06:40:01.093Z,18.94
2023-05-11T06:41:01.117Z,19.20
2023-05-11T06:42:04.175Z,19.37
2023-05-11T06:43:01.158Z,19.62
2023-05-11T06:44:01.177Z,19.84
2023-05-11T06:45:01.258Z,20.11
2023-05-11T06:46:01.284Z,20.22
2023-05-11T06:47:01.250Z,20.49
2023-05-11T06:48:01.295Z,20.58
2023-05-11T06:49:01.295Z,20.78
2023-05-11T06:50:01.322Z,21.04
2023-05-11T06:51:01.345Z,21.14
2023-05-11T06:52:01.366Z,21.25
2023-05-11T06:53:01.393Z,21.32
2023-05-11T06:54:01.441Z,21.43
2023-05-11T06:55:01.444Z,21.59
2023-05-11T06:56:01.466Z,21.78
2023-05-11T06:57:01.504Z,21.92
2023-05-11T06:58:01.516Z,22.04
2023-05-11T06:59:01.538Z,22.06
2023-05-11T07:00:01.578Z,22.25
2023-05-11T07:01:01.621Z,22.40
2023-05-11T07:02:01.611Z,22.43
2023-05-11T07:03:01.664Z,22.41
2023-05-11T07:04:01.661Z,22.67
2023-05-11T07:05:01.721Z,22.80
2023-05-11T07:06:01.715Z,22.78
2023-05-11T07:07:01.743Z,22.92
2023-05-11T07:08:01.765Z,22.95
2023-05-11T07:09:01.792Z,23.07
2023-05-11T07:10:01.828Z,23.23
2023-05-11T07:11:01.887Z,23.21
2023-05-11T07:12:01.865Z,23.26
2023-05-11T07:13:01.892Z,23.40
2023-05-11T07:14:01.920Z,23.45
2023-05-11T07:15:01.952Z,23.48
2023-05-11T07:16:01.980Z,23.64
2023-05-11T07:17:02.056Z,23.73
2023-05-11T07:18:02.082Z,23.88
2023-05-11T07:19:02.134Z,23.91
2023-05-11T07:20:02.107Z,24.01
2023-05-11T07:21:02.097Z,24.16
2023-05-11T07:22:02.146Z,24.22
2023-05-11T07:23:02.155Z,24.28
2023-05-11T07:24:02.184Z,24.28
2023-05-11T07:25:02.215Z,24.46
2023-05-11T07:26:02.236Z,24.56
2023-05-11T07:27:02.269Z,24.61
2023-05-11T07:28:02.292Z,24.61
2023-05-11T07:29:02.320Z,24.75
2023-05-11T07:30:02.355Z,24.69
2023-05-11T07:31:02.412Z,24.69
2023-05-11T07:32:02.404Z,24.75
2023-05-11T07:33:02.472Z,24.77
2023-05-11T07:34:02.450Z,24.69
2023-05-11T07:35:02.550Z,24.78
2023-05-11T07:36:02.507Z,24.92
2023-05-11T07:37:02.536Z,24.88
2023-05-11T07:38:02.565Z,25.01
2023-05-11T07:39:02.588Z,25.00
2023-05-11T07:40:02.628Z,25.11
2023-05-11T07:41:03.493Z,25.14
2023-05-11T07:42:02.671Z,25.22
2023-05-11T07:43:02.704Z,25.24
2023-05-11T07:44:02.733Z,25.31
2023-05-11T07:45:02.757Z,25.30
2023-05-11T07:46:02.806Z,25.41
2023-05-11T07:47:02.816Z,25.40
2023-05-11T07:48:02.883Z,25.43
2023-05-11T07:49:14.517Z,25.31
2023-05-11T07:50:02.905Z,25.30
2023-05-11T07:51:02.928Z,25.19
2023-05-11T07:52:02.951Z,25.29
2023-05-11T07:53:02.983Z,25.33
2023-05-11T07:54:03.025Z,25.39
2023-05-11T07:55:03.035Z,25.41
2023-05-11T07:56:03.071Z,25.54
2023-05-11T07:57:03.101Z,25.55
2023-05-11T07:58:03.123Z,25.41
2023-05-11T07:59:03.433Z,25.48
2023-05-11T08:00:03.181Z,25.41
2023-05-11T08:01:03.213Z,25.43
2023-05-11T08:02:03.270Z,25.44
2023-05-11T08:03:03.320Z,25.39
2023-05-11T08:04:03.303Z,25.44
2023-05-11T08:05:03.324Z,25.39
2023-05-11T08:06:03.477Z,25.43
2023-05-11T08:07:03.392Z,25.48
2023-05-11T08:08:03.412Z,25.56
2023-05-11T08:09:03.452Z,25.52
2023-05-11T08:10:03.469Z,25.58
2023-05-11T08:11:03.499Z,25.52
2023-05-11T08:12:03.526Z,25.67
2023-05-11T08:13:03.550Z,25.61
2023-05-11T08:14:03.589Z,25.61
2023-05-11T08:15:03.626Z,25.48
2023-05-11T08:16:03.667Z,25.46
2023-05-11T08:17:03.672Z,25.36
2023-05-11T08:18:03.788Z,25.29
2023-05-11T08:19:03.821Z,25.24
2023-05-11T08:20:03.760Z,25.11
2023-05-11T08:21:03.795Z,25.01
2023-05-11T08:22:03.821Z,24.89
2023-05-11T08:23:03.849Z,24.77
2023-05-11T08:24:03.881Z,24.66
2023-05-11T08:25:03.908Z,24.56
2023-05-11T08:26:03.933Z,24.47
2023-05-11T08:27:03.969Z,24.34
2023-05-11T08:28:03.995Z,24.29
2023-05-11T08:29:04.022Z,24.29
2023-05-11T08:30:04.051Z,24.26
2023-05-11T08:31:04.079Z,24.11
2023-05-11T08:32:04.122Z,23.96
2023-05-11T08:34:05.131Z,23.79
2023-05-11T08:35:04.354Z,23.62
2023-05-11T08:36:04.220Z,23.55
2023-05-11T08:37:04.258Z,23.63
2023-05-11T08:38:04.275Z,23.54
2023-05-11T08:39:04.304Z,23.40
2023-05-11T08:40:04.345Z,23.34
2023-05-11T08:41:04.359Z,23.33
2023-05-11T08:42:04.399Z,23.37
2023-05-11T08:43:04.422Z,23.39
2023-05-11T08:44:04.443Z,23.39
2023-05-11T08:45:04.479Z,23.36
2023-05-11T08:46:04.568Z,23.33
2023-05-11T08:47:18.922Z,23.26
2023-05-11T08:48:04.605Z,23.23
2023-05-11T08:49:04.581Z,23.18
2023-05-11T08:50:04.606Z,23.16
2023-05-11T08:51:04.633Z,23.23
2023-05-11T08:52:06.017Z,23.25
2023-05-11T08:53:04.688Z,23.18
2023-05-11T08:54:04.724Z,23.17
2023-05-11T08:55:04.744Z,23.18
2023-05-11T08:56:04.771Z,23.21
2023-05-11T08:57:04.820Z,23.14
2023-05-11T08:58:04.826Z,23.07
2023-05-11T08:59:04.857Z,23.06
2023-05-11T09:00:04.883Z,23.06
2023-05-11T09:01:04.942Z,23.13
2023-05-11T09:02:04.948Z,23.06
2023-05-11T09:03:05.131Z,23.06
2023-05-11T09:04:04.990Z,23.06
2023-05-11T09:05:05.151Z,23.11
2023-05-11T09:06:05.049Z,23.18
2023-05-11T09:07:05.082Z,23.20
2023-05-11T09:08:05.104Z,23.17
2023-05-11T09:09:05.133Z,23.29
2023-05-11T09:10:05.163Z,23.25
2023-05-11T09:11:05.191Z,23.34
2023-05-11T09:12:05.216Z,23.39
2023-05-11T09:13:05.249Z,23.42
2023-05-11T09:14:05.273Z,23.32
2023-05-11T09:15:05.301Z,23.40
2023-05-11T09:16:09.252Z,23.45
2023-05-11T09:17:05.509Z,23.49
2023-05-11T09:18:05.588Z,23.44
2023-05-11T09:19:05.495Z,23.51
2023-05-11T09:20:05.602Z,23.63
2023-05-11T09:21:05.477Z,23.58
2023-05-11T09:22:05.512Z,23.64
2023-05-11T14:32:48.712Z,28.50
2023-05-11T14:33:48.676Z,28.52
2023-05-11T14:34:48.796Z,28.67
2023-05-11T14:35:48.735Z,28.86
2023-05-11T14:36:48.757Z,28.83
2023-05-11T14:37:48.791Z,28.80
2023-05-11T14:38:48.814Z,28.90
2023-05-11T14:39:48.846Z,28.94
2023-05-11T14:40:50.476Z,28.96
2023-05-11T14:41:48.903Z,28.96
2023-05-11T14:42:49.001Z,29.10
2023-05-11T14:43:48.968Z,29.07
2023-05-11T14:44:48.992Z,29.13
2023-05-11T14:45:49.056Z,29.12
2023-05-11T14:46:49.105Z,29.12
2023-05-11T14:47:49.131Z,29.05
2023-05-11T14:48:49.119Z,29.05
2023-05-11T14:49:49.154Z,29.05
2023-05-11T14:50:49.170Z,29.06
2023-05-11T14:51:49.199Z,29.00
2023-05-11T14:52:49.220Z,28.96
2023-05-11T14:53:49.252Z,28.90
2023-05-11T14:54:49.291Z,28.86
2023-05-11T14:55:49.340Z,28.83
2023-05-11T14:56:49.338Z,28.78
2023-05-11T14:57:49.370Z,28.72
2023-05-11T14:58:49.393Z,28.71
2023-05-11T14:59:58.904Z,28.68
2023-05-11T15:00:49.460Z,28.71
2023-05-11T15:01:49.622Z,28.56
2023-05-11T15:02:49.546Z,28.56
2023-05-11T15:03:49.569Z,28.52
2023-05-11T15:04:49.573Z,28.35
2023-05-11T15:05:49.614Z,28.22
2023-05-11T15:06:49.640Z,28.09
2023-05-11T15:07:49.658Z,28.00
2023-05-11T15:08:49.685Z,28.01
2023-05-11T15:09:49.720Z,27.97
2023-05-11T15:10:49.747Z,27.83
2023-05-11T15:11:49.774Z,27.78
2023-05-11T15:12:49.793Z,27.67
2023-05-11T15:13:49.825Z,27.53
2023-05-11T15:14:49.860Z,27.48
2023-05-11T15:15:49.990Z,27.35
2023-05-11T15:16:49.997Z,27.26
2023-05-11T15:17:49.964Z,27.18
2023-05-11T15:18:50.028Z,27.11
2023-05-11T15:19:49.987Z,27.01
2023-05-11T15:20:50.018Z,27.00
2023-05-11T15:21:50.039Z,26.83
2023-05-11T15:22:50.067Z,26.82
2023-05-11T15:23:50.103Z,26.68
2023-05-11T15:24:50.123Z,26.59
2023-05-11T15:25:50.153Z,26.51
2023-05-11T15:26:50.174Z,26.42
2023-05-11T15:27:50.216Z,26.30
2023-05-11T15:28:50.228Z,26.26
2023-05-11T15:29:50.458Z,26.24
2023-05-11T15:30:50.282Z,26.15
2023-05-11T15:31:50.346Z,25.96
2023-05-11T15:32:50.370Z,25.81
2023-05-11T15:33:50.375Z,25.86
2023-05-11T15:34:59.309Z,25.86
2023-05-11T15:35:50.416Z,25.83
2023-05-11T15:36:50.440Z,25.80
2023-05-11T15:37:50.463Z,25.74
2023-05-11T15:38:50.496Z,25.76
2023-05-11T15:39:50.522Z,25.77
2023-05-11T15:40:50.540Z,25.77
2023-05-11T15:41:50.564Z,25.73
2023-05-11T15:42:50.591Z,25.68
2023-05-11T15:43:50.621Z,25.73
2023-05-11T15:44:50.642Z,25.66
2023-05-11T15:45:50.707Z,25.56
2023-05-11T15:46:50.695Z,25.58
2023-05-11T15:47:50.746Z,25.49
2023-05-11T15:48:50.756Z,25.34
2023-05-11T15:49:50.775Z,25.33
2023-05-11T15:50:50.798Z,25.36
2023-05-11T15:51:50.820Z,25.29
2023-05-11T15:52:50.843Z,25.25
2023-05-11T15:53:50.872Z,25.24
2023-05-11T15:54:50.907Z,25.16
2023-05-11T15:55:50.923Z,25.06
2023-05-11T15:56:50.951Z,25.06
2023-05-11T15:57:51.176Z,25.07
2023-05-11T15:58:50.998Z,24.97
2023-05-11T15:59:51.145Z,24.99
2023-05-11T16:00:51.087Z,25.00
2023-05-11T16:01:51.197Z,24.99
2023-05-11T16:02:51.267Z,25.03
2023-05-11T16:03:51.210Z,25.03
2023-05-11T16:04:51.152Z,24.92
2023-05-11T16:05:51.171Z,24.99
2023-05-11T16:06:51.196Z,24.97
2023-05-11T16:07:51.224Z,24.94
2023-05-11T16:08:51.242Z,25.00
2023-05-11T16:09:51.296Z,24.93
2023-05-11T16:10:51.326Z,24.79
2023-05-11T16:11:51.333Z,24.81
2023-05-11T16:12:51.349Z,24.86
2023-05-11T16:13:51.420Z,24.94
2023-05-11T16:14:51.403Z,24.89
2023-05-11T16:15:51.423Z,24.82
2023-05-11T16:16:51.477Z,24.75
2023-05-11T16:17:51.495Z,24.81
2023-05-11T16:18:51.528Z,24.81
2023-05-11T16:19:51.518Z,24.77
2023-05-11T16:20:51.558Z,24.75
2023-05-11T16:21:51.573Z,24.69
2023-05-11T16:22:51.593Z,24.61
2023-05-11T16:23:51.628Z,24.59
2023-05-11T16:24:51.645Z,24.44
2023-05-11T16:25:51.667Z,24.47
2023-05-11T16:26:51.692Z,24.44
2023-05-11T16:27:51.750Z,24.26
2023-05-11T16:28:51.744Z,24.22
2023-05-11T16:29:51.768Z,24.09
2023-05-11T16:30:51.790Z,24.16
2023-05-11T16:31:51.938Z,24.04
2023-05-11T16:32:51.903Z,23.96
2023-05-11T16:33:51.868Z,23.96
2023-05-11T16:34:51.914Z,23.89
2023-05-11T16:35:51.913Z,23.85
2023-05-11T16:36:51.942Z,23.74
2023-05-11T16:37:51.964Z,23.67
2023-05-11T16:38:51.988Z,23.62
2023-05-11T16:39:52.013Z,23.58
2023-05-11T16:40:52.037Z,23.47
2023-05-11T16:41:52.062Z,23.51
2023-05-11T16:42:52.084Z,23.49
2023-05-11T16:43:52.106Z,23.48
2023-05-11T16:44:52.136Z,23.36
2023-05-11T16:45:52.158Z,23.29
2023-05-11T16:46:52.264Z,23.29
2023-05-11T16:47:52.300Z,23.26
2023-05-11T16:48:52.233Z,23.17
2023-05-11T16:49:52.259Z,23.14
2023-05-11T16:50:52.280Z,22.99
2023-05-11T16:51:52.305Z,23.04
2023-05-11T16:52:52.326Z,23.07
2023-05-11T16:53:52.360Z,23.01
2023-05-11T16:54:52.380Z,22.99
2023-05-11T16:55:52.406Z,22.96
2023-05-11T16:56:52.420Z,22.98
2023-05-11T16:57:52.450Z,22.95
2023-05-11T16:58:52.471Z,22.93
2023-05-11T16:59:52.494Z,22.98
2023-05-11T17:00:52.516Z,22.92
2023-05-11T17:01:52.606Z,22.92
2023-05-11T17:02:52.634Z,22.84
2023-05-11T17:03:52.710Z,22.74
2023-05-11T17:04:52.615Z,22.78
2023-05-11T17:05:52.637Z,22.78
2023-05-11T17:06:52.671Z,22.80
2023-05-11T17:07:52.687Z,22.78
2023-05-11T17:08:52.709Z,22.68
2023-05-11T17:09:52.735Z,22.70
2023-05-11T17:10:52.770Z,22.71
2023-05-11T17:11:52.779Z,22.61
2023-05-11T17:12:52.804Z,22.58
2023-05-11T17:13:52.829Z,22.65
2023-05-11T17:14:52.869Z,22.63
2023-05-11T17:15:52.903Z,22.55
2023-05-11T17:16:52.954Z,22.41
2023-05-11T17:17:52.958Z,22.47
2023-05-11T17:18:52.980Z,22.51
2023-05-11T17:19:52.970Z,22.43
2023-05-11T17:20:52.992Z,22.37
2023-05-11T17:21:53.025Z,22.38
2023-05-11T17:22:53.040Z,22.36
2023-05-11T17:23:53.064Z,22.36
2023-05-11T17:24:53.116Z,22.30
2023-05-11T17:25:53.110Z,22.33
2023-05-11T17:26:53.135Z,22.25
2023-05-11T17:27:53.160Z,22.30
2023-05-11T17:28:53.179Z,22.25
2023-05-11T17:29:53.203Z,22.33
2023-05-11T17:30:53.291Z,22.08
2023-05-11T17:31:53.444Z,22.22
2023-05-11T17:32:53.526Z,22.03
2023-05-11T17:33:53.479Z,22.10
2023-05-11T17:34:53.325Z,22.03
2023-05-11T17:35:53.344Z,22.10
2023-05-11T17:36:53.368Z,22.06
2023-05-11T17:37:53.392Z,22.07
2023-05-11T17:38:53.418Z,21.97
2023-05-11T17:39:53.436Z,21.94
2023-05-11T17:40:53.457Z,21.89
2023-05-11T17:41:53.486Z,21.88
2023-05-11T17:42:53.512Z,21.80
2023-05-11T17:43:53.531Z,21.81
2023-05-11T17:44:53.551Z,21.72
2023-05-11T17:45:53.630Z,21.74
2023-05-11T17:46:53.598Z,21.77
2023-05-11T17:47:53.689Z,21.60
2023-05-11T17:48:53.654Z,21.51
2023-05-11T17:49:53.670Z,21.58
2023-05-11T17:50:53.691Z,21.54
2023-05-11T17:51:53.721Z,21.51
2023-05-11T17:52:53.739Z,21.58
2023-05-11T17:53:53.783Z,21.47
2023-05-11T17:54:53.797Z,21.51
2023-05-11T17:55:53.805Z,21.41
2023-05-11T17:56:53.829Z,21.33
2023-05-11T17:57:53.852Z,21.35
2023-05-11T17:58:53.880Z,21.29
2023-05-11T17:59:53.920Z,21.26
2023-05-11T18:00:53.922Z,21.29
2023-05-11T18:01:54.011Z,21.19
2023-05-11T18:02:54.054Z,21.22
2023-05-11T18:03:54.163Z,21.25